Aérodrome :
LOGIN :

S'inscrire | Disclaimer

   EN    FR    IT 

 










Légende :    VFR   VFR Marginal   IFR   IFR Intensif   IFR Très Intensif
Visi : 
Plafond : 
>= 8 km
>= 3000ft
5 à 8 km
1000 à 3000 ft
1500m à 5 km
500 à 1000 ft
800 à 1500m
200 à 500 ft
< 800m
< 200 ft
Symboles :   Orages  Brouillard  Fortes neiges  Fortes précipitations  Vent > 20 kt
SIGMETs :   Divers  Orages  Givrage  Turbulence  Onde Orograph.  Cendres Volcan.






- Altitude de l'aérodrome : 28 ft
- Code IATA : SOZ


LFKS - Solenzara

DERNIER METAR :
  • 052330Z AUTO 32007KT 230V360 9999 NCD 25/16 Q1009

METARs EXPIRÉS :
  • 052300Z AUTO 33008KT 270V030 CAVOK 24/15 Q1009
  • 052230Z AUTO 25013KT 220V290 CAVOK 26/10 Q1009
  • 052200Z AUTO 26013G25KT 210V300 CAVOK 26/10 Q1009
  • 052130Z AUTO 25014KT 220V290 CAVOK 26/10 Q1009
  • 052100Z AUTO 26015KT 230V290 CAVOK 26/10 Q1009

TAF TAF LFKS
Valide du 05 à 21h jusqu'au 06 à 21h UTC


052000Z 0521/0621 27010KT CAVOK
TEMPO 0607/0609 10010KT



MET'MAP, la Météo Aéronautique d'un coup d'oeil ! - Copyright ORBIFLY Décembre 2007 - Disclaimer

ORBIFLY MET'MAP TEAM :

Programmation & Développement : Alexandra Zaïnal
Sur une idée originale de : Baudouin d'Aumeries
Assistance à la programmation : Marc-Olivier Méhu
Soutien technique & logistique : Manuel Goepfert

Contact : metmap@orbifly.com




SOURCES & CREDITS :

   NOAA